Time;durP1;ratioP1;P1;durP2;ratioP2;P2;SDS_P1;SDS_P2;PMS_P1;PMS_P2;Temp;Humidity;BMP_temperature;BMP_pressure;BME280_temperature;BME280_humidity;BME280_pressure;Samples;Min_cycle;Max_cycle;Signal;HPM_P1;HPM_P2
2023/12/30 00:02:17;;;;;;;4.13;1.63;;;;;;;7.31;100.00;100305.66;6134556;28;20644;-68
2023/12/30 00:05:39;;;;;;;2.93;1.13;;;;;;;7.20;100.00;100310.09;6127911;28;20262;-68
2023/12/30 00:09:00;;;;;;;2.77;1.53;;;;;;;7.23;100.00;100319.72;6136138;28;20255;-68
2023/12/30 00:12:23;;;;;;;2.23;1.60;;;;;;;7.17;100.00;100306.81;6139233;28;20227;-68
2023/12/30 00:15:44;;;;;;;3.37;1.23;;;;;;;7.17;100.00;100312.19;6138672;28;20223;-68
2023/12/30 00:19:05;;;;;;;1.80;1.33;;;;;;;7.11;100.00;100313.53;6130658;28;20259;-68
2023/12/30 00:22:27;;;;;;;1.73;1.57;;;;;;;7.14;100.00;100299.03;6131581;28;20227;-68
2023/12/30 00:25:48;;;;;;;8.03;1.80;;;;;;;7.15;100.00;100312.28;6129228;28;20235;-68
2023/12/30 00:29:09;;;;;;;3.40;1.63;;;;;;;7.19;100.00;100319.13;6129607;28;20326;-67
2023/12/30 00:32:30;;;;;;;1.87;1.00;;;;;;;7.06;100.00;100322.94;6127752;28;20231;-68
2023/12/30 00:35:50;;;;;;;3.70;2.13;;;;;;;7.02;100.00;100316.13;6135334;28;20234;-68
2023/12/30 00:39:13;;;;;;;1.27;1.17;;;;;;;6.99;100.00;100302.97;6138587;28;20235;-68
2023/12/30 00:42:33;;;;;;;1.10;1.00;;;;;;;6.88;100.00;100311.94;6157945;28;20565;-68
2023/12/30 00:45:54;;;;;;;4.47;1.30;;;;;;;6.96;100.00;100311.28;6140158;28;20243;-68
2023/12/30 00:49:16;;;;;;;2.97;1.97;;;;;;;6.78;100.00;100310.13;6146719;28;20231;-68
2023/12/30 00:52:36;;;;;;;1.27;1.17;;;;;;;6.77;100.00;100330.72;6140724;28;20238;-68
2023/12/30 00:55:59;;;;;;;5.13;2.33;;;;;;;6.79;100.00;100325.22;6143123;28;20243;-68
2023/12/30 00:59:20;;;;;;;4.57;2.23;;;;;;;6.84;100.00;100318.50;6144748;28;20235;-67
2023/12/30 01:02:41;;;;;;;4.37;2.20;;;;;;;6.77;100.00;100303.06;6138448;28;20231;-68
2023/12/30 01:06:01;;;;;;;2.30;1.63;;;;;;;6.76;100.00;100296.03;6151417;28;20231;-69
2023/12/30 01:09:22;;;;;;;2.60;1.30;;;;;;;6.78;100.00;100302.94;6137782;28;21239;-68
2023/12/30 01:12:45;;;;;;;1.50;1.40;;;;;;;6.83;100.00;100294.53;6140331;28;20235;-68
2023/12/30 01:16:06;;;;;;;2.97;1.77;;;;;;;6.81;100.00;100313.41;6147946;28;20625;-68
2023/12/30 01:19:27;;;;;;;2.10;2.00;;;;;;;6.84;100.00;100306.94;6135124;28;20576;-68
2023/12/30 01:22:48;;;;;;;1.87;1.40;;;;;;;6.88;100.00;100321.78;6144223;28;20227;-68
2023/12/30 01:26:08;;;;;;;2.30;2.10;;;;;;;6.87;100.00;100322.75;6150273;28;20235;-68
2023/12/30 01:29:30;;;;;;;2.67;1.13;;;;;;;6.81;100.00;100332.16;6145688;28;20231;-68
2023/12/30 01:32:52;;;;;;;2.00;0.97;;;;;;;6.76;100.00;100352.28;6135506;28;20778;-68
2023/12/30 01:36:13;;;;;;;1.40;1.30;;;;;;;6.70;100.00;100348.25;6138831;28;20689;-69
2023/12/30 01:39:34;;;;;;;3.20;2.90;;;;;;;6.68;100.00;100358.22;6138188;28;20254;-69
2023/12/30 01:42:55;;;;;;;1.20;0.97;;;;;;;6.69;100.00;100361.78;6136204;28;20255;-69
2023/12/30 01:46:17;;;;;;;2.00;1.30;;;;;;;6.73;100.00;100365.91;6155379;28;20227;-69
2023/12/30 01:49:39;;;;;;;1.50;0.73;;;;;;;6.87;100.00;100370.97;6139464;28;20632;-68
2023/12/30 01:52:59;;;;;;;1.83;1.63;;;;;;;6.81;100.00;100368.81;6140080;28;20593;-69
2023/12/30 01:56:22;;;;;;;3.13;0.90;;;;;;;6.78;100.00;100382.47;6156917;28;20271;-68
2023/12/30 01:59:45;;;;;;;1.00;0.90;;;;;;;6.79;100.00;100373.44;6152003;28;20227;-69
2023/12/30 02:03:07;;;;;;;1.43;1.30;;;;;;;6.83;100.00;100385.59;6150160;28;20501;-67
2023/12/30 02:06:28;;;;;;;0.70;0.70;;;;;;;6.86;100.00;100380.00;6128856;28;20235;-68
2023/12/30 02:09:49;;;;;;;1.73;0.67;;;;;;;6.88;100.00;100383.41;6138001;28;20239;-68
2023/12/30 02:13:10;;;;;;;1.90;1.80;;;;;;;6.87;100.00;100377.19;6135822;28;20227;-68
2023/12/30 02:16:31;;;;;;;1.27;1.17;;;;;;;6.92;100.00;100382.19;6134607;28;20656;-68
2023/12/30 02:19:54;;;;;;;1.37;1.27;;;;;;;6.90;100.00;100384.13;6137664;28;20231;-68
2023/12/30 02:23:16;;;;;;;2.00;1.90;;;;;;;6.87;100.00;100389.72;6146565;28;20230;-68
2023/12/30 02:26:39;;;;;;;2.27;0.97;;;;;;;6.85;100.00;100389.00;6145607;28;20231;-67
2023/12/30 02:30:00;;;;;;;0.60;0.60;;;;;;;6.81;100.00;100393.78;6139624;28;20227;-67
2023/12/30 02:33:21;;;;;;;1.50;0.97;;;;;;;6.86;100.00;100396.91;6126280;28;20247;-68
2023/12/30 02:36:43;;;;;;;3.30;0.90;;;;;;;6.77;100.00;100405.72;6143713;28;20231;-68
2023/12/30 02:40:06;;;;;;;2.33;1.30;;;;;;;6.72;100.00;100401.69;6139825;28;20708;-68
2023/12/30 02:43:28;;;;;;;1.50;1.27;;;;;;;6.68;100.00;100410.94;6139461;28;20247;-68
2023/12/30 02:46:48;;;;;;;1.57;1.47;;;;;;;6.66;100.00;100411.06;6139033;28;20227;-68
2023/12/30 02:50:10;;;;;;;1.20;0.97;;;;;;;6.62;100.00;100412.28;6137794;28;20227;-68
2023/12/30 02:53:31;;;;;;;1.10;1.00;;;;;;;6.64;100.00;100401.44;6135882;28;20933;-67
2023/12/30 02:56:53;;;;;;;1.80;1.43;;;;;;;6.58;100.00;100424.22;6139711;28;20832;-68
2023/12/30 03:00:15;;;;;;;3.20;0.83;;;;;;;6.51;100.00;100414.97;6129149;28;20231;-68
2023/12/30 03:03:35;;;;;;;1.47;0.90;;;;;;;6.48;100.00;100412.53;6134596;28;20226;-68
2023/12/30 03:06:56;;;;;;;3.57;1.20;;;;;;;6.42;100.00;100410.34;6130600;28;20258;-68
2023/12/30 03:10:17;;;;;;;2.90;0.93;;;;;;;6.42;100.00;100419.22;6134418;28;20597;-68
2023/12/30 03:13:40;;;;;;;4.00;1.47;;;;;;;6.38;100.00;100408.91;6139495;28;20234;-67
2023/12/30 03:17:00;;;;;;;1.33;0.93;;;;;;;6.40;100.00;100420.34;6139828;28;20243;-68
2023/12/30 03:20:21;;;;;;;1.60;1.30;;;;;;;6.41;100.00;100435.41;6136185;28;20231;-68
2023/12/30 03:23:42;;;;;;;1.33;1.20;;;;;;;6.46;100.00;100430.56;6132404;28;20227;-68
2023/12/30 03:27:04;;;;;;;3.53;1.60;;;;;;;6.42;100.00;100432.59;6137605;28;20231;-68
2023/12/30 03:30:26;;;;;;;2.20;1.07;;;;;;;6.43;100.00;100439.69;6135486;28;20235;-68
2023/12/30 03:33:47;;;;;;;2.90;1.53;;;;;;;6.45;100.00;100448.44;6132299;28;20339;-68
2023/12/30 03:37:08;;;;;;;3.23;1.40;;;;;;;6.44;100.00;100452.09;6149951;28;20466;-68
2023/12/30 03:40:29;;;;;;;5.50;1.47;;;;;;;6.46;100.00;100454.66;6138291;28;20329;-68
2023/12/30 03:43:49;;;;;;;2.73;1.23;;;;;;;6.42;100.00;100451.34;6133792;28;20523;-68
2023/12/30 03:47:12;;;;;;;2.90;1.23;;;;;;;6.49;100.00;100456.25;6142909;28;20317;-68
2023/12/30 03:50:32;;;;;;;1.07;0.77;;;;;;;6.47;100.00;100471.56;6131827;28;20574;-68
2023/12/30 03:53:54;;;;;;;3.40;1.00;;;;;;;6.47;100.00;100465.22;6130526;28;20246;-68
2023/12/30 03:57:15;;;;;;;6.20;2.00;;;;;;;6.57;100.00;100472.56;6150144;28;20231;-68
2023/12/30 04:00:36;;;;;;;4.20;1.47;;;;;;;6.58;100.00;100488.50;6131979;28;20512;-68
2023/12/30 04:03:58;;;;;;;1.67;1.53;;;;;;;6.60;100.00;100473.16;6132524;28;20345;-67
2023/12/30 04:07:19;;;;;;;2.10;1.37;;;;;;;6.67;100.00;100478.88;6139322;28;20230;-68
2023/12/30 04:10:40;;;;;;;3.93;1.83;;;;;;;6.70;100.00;100481.31;6149008;28;20367;-67
2023/12/30 04:14:01;;;;;;;8.60;2.07;;;;;;;6.67;100.00;100492.28;6140493;28;20231;-67
2023/12/30 04:17:23;;;;;;;2.03;1.40;;;;;;;6.71;100.00;100509.81;6151382;28;20265;-68
2023/12/30 04:20:45;;;;;;;2.13;1.40;;;;;;;6.53;100.00;100493.34;6115585;28;20231;-68
2023/12/30 04:24:06;;;;;;;5.43;2.60;;;;;;;6.43;100.00;100501.25;6128227;28;20358;-69
2023/12/30 04:27:28;;;;;;;8.13;2.53;;;;;;;6.34;100.00;100528.72;6127781;28;20737;-69
2023/12/30 04:30:48;;;;;;;4.40;2.73;;;;;;;6.28;100.00;100512.28;6124998;28;20231;-68
2023/12/30 04:34:10;;;;;;;2.97;1.70;;;;;;;6.37;100.00;100496.38;6139090;28;20329;-68
2023/12/30 04:37:32;;;;;;;2.23;1.20;;;;;;;6.49;100.00;100502.59;6137758;28;20235;-69
2023/12/30 04:40:53;;;;;;;3.77;1.50;;;;;;;6.50;100.00;100487.38;6140930;28;20231;-69
2023/12/30 04:44:14;;;;;;;3.70;1.90;;;;;;;6.62;100.00;100494.44;6130990;28;20579;-69
2023/12/30 04:47:35;;;;;;;1.93;1.43;;;;;;;6.62;100.00;100476.56;6153075;28;20235;-69
2023/12/30 04:50:55;;;;;;;2.80;1.70;;;;;;;6.66;100.00;100482.53;6138882;28;20234;-68
2023/12/30 04:54:18;;;;;;;3.20;1.50;;;;;;;6.68;100.00;100484.09;6137093;28;20613;-69
2023/12/30 04:57:41;;;;;;;3.50;1.90;;;;;;;6.62;100.00;100489.94;6141598;28;20632;-69
2023/12/30 05:01:02;;;;;;;3.33;3.03;;;;;;;6.68;100.00;100488.59;6135211;28;20243;-69
2023/12/30 05:04:22;;;;;;;1.73;1.63;;;;;;;6.67;100.00;100485.09;6138352;28;20235;-69
2023/12/30 05:07:43;;;;;;;1.70;1.30;;;;;;;6.73;100.00;100503.38;6145341;28;20235;-70
2023/12/30 05:11:07;;;;;;;3.23;1.70;;;;;;;6.74;100.00;100497.00;6137805;28;20239;-68
2023/12/30 05:14:27;;;;;;;3.17;1.60;;;;;;;6.72;100.00;100508.81;6142928;28;20239;-69
2023/12/30 05:17:48;;;;;;;3.43;1.33;;;;;;;6.69;100.00;100527.81;6140264;28;20242;-70
2023/12/30 05:21:12;;;;;;;2.87;1.10;;;;;;;6.68;100.00;100534.13;6128702;28;20322;-69
2023/12/30 05:24:33;;;;;;;5.73;2.13;;;;;;;6.68;100.00;100518.06;6139769;28;20223;-69
2023/12/30 05:27:55;;;;;;;1.70;1.60;;;;;;;6.69;100.00;100530.50;6140602;28;20964;-69
2023/12/30 05:31:16;;;;;;;1.93;1.63;;;;;;;6.71;100.00;100539.25;6133618;28;20560;-69
2023/12/30 05:34:37;;;;;;;2.87;1.40;;;;;;;6.76;100.00;100521.03;6139756;28;20322;-69
2023/12/30 05:37:58;;;;;;;1.10;1.00;;;;;;;6.72;100.00;100528.44;6141216;28;20231;-69
2023/12/30 05:41:19;;;;;;;2.23;1.40;;;;;;;6.76;100.00;100529.06;6139666;28;20502;-69
2023/12/30 05:44:41;;;;;;;2.23;1.30;;;;;;;6.81;100.00;100529.53;6132447;28;20227;-69
2023/12/30 05:48:02;;;;;;;7.10;1.70;;;;;;;6.80;100.00;100523.31;6141090;28;20239;-69
2023/12/30 05:51:23;;;;;;;2.17;1.30;;;;;;;6.77;100.00;100530.75;6143472;28;20227;-69
2023/12/30 05:54:45;;;;;;;6.07;1.93;;;;;;;6.80;100.00;100535.88;6144234;28;20235;-69
2023/12/30 05:58:05;;;;;;;2.87;1.33;;;;;;;6.75;100.00;100546.94;6146426;28;20268;-69
2023/12/30 06:01:28;;;;;;;3.93;1.40;;;;;;;6.75;100.00;100563.03;6136605;28;20367;-69
2023/12/30 06:04:49;;;;;;;3.70;1.83;;;;;;;6.76;100.00;100559.34;6139969;28;20675;-68
2023/12/30 06:08:10;;;;;;;2.93;2.47;;;;;;;6.84;100.00;100558.78;6132934;28;20235;-70
2023/12/30 06:11:31;;;;;;;3.50;1.73;;;;;;;6.86;100.00;100549.63;6135945;28;20359;-69
2023/12/30 06:14:51;;;;;;;2.87;1.50;;;;;;;6.86;100.00;100568.38;6131166;28;20231;-69
2023/12/30 06:18:14;;;;;;;3.50;1.47;;;;;;;6.90;100.00;100582.41;6137910;28;20239;-69
2023/12/30 06:21:35;;;;;;;2.83;2.50;;;;;;;6.85;100.00;100589.94;6138163;28;20254;-69
2023/12/30 06:24:56;;;;;;;5.50;2.73;;;;;;;6.78;100.00;100591.41;6136999;28;20242;-69
2023/12/30 06:28:16;;;;;;;2.83;2.27;;;;;;;6.78;100.00;100591.41;6152154;28;21018;-69
2023/12/30 06:31:41;;;;;;;2.27;1.50;;;;;;;6.81;100.00;100609.91;6130209;28;20235;-70
2023/12/30 06:35:03;;;;;;;5.60;1.97;;;;;;;6.81;100.00;100609.91;6142203;28;20231;-69
2023/12/30 06:38:24;;;;;;;2.17;1.50;;;;;;;6.89;100.00;100610.16;6136145;28;20520;-69
2023/12/30 06:41:45;;;;;;;8.43;3.30;;;;;;;6.82;100.00;100616.97;6139663;28;20595;-70
2023/12/30 06:45:08;;;;;;;5.77;1.73;;;;;;;6.88;100.00;100621.84;6152224;28;20235;-70
2023/12/30 06:48:29;;;;;;;3.27;1.93;;;;;;;6.93;100.00;100609.78;6134517;28;20231;-70
2023/12/30 06:51:51;;;;;;;3.37;2.23;;;;;;;6.90;100.00;100628.81;6132799;28;20235;-70
2023/12/30 06:55:13;;;;;;;2.70;1.30;;;;;;;6.89;100.00;100629.75;6140765;28;20238;-69
2023/12/30 06:58:34;;;;;;;2.20;2.00;;;;;;;6.78;100.00;100632.41;6137372;28;20239;-69
2023/12/30 07:01:55;;;;;;;2.43;1.50;;;;;;;6.75;100.00;100642.53;6127154;28;20333;-69
2023/12/30 07:05:16;;;;;;;4.93;2.43;;;;;;;6.60;100.00;100647.22;6125762;28;20235;-69
2023/12/30 07:08:38;;;;;;;3.40;1.73;;;;;;;6.58;100.00;100649.16;6134054;28;20231;-69
2023/12/30 07:11:59;;;;;;;2.80;1.37;;;;;;;6.64;100.00;100658.53;6135089;28;20899;-69
2023/12/30 07:15:21;;;;;;;9.33;2.07;;;;;;;6.63;100.00;100672.94;6129976;28;20234;-69
2023/12/30 07:18:42;;;;;;;5.13;2.87;;;;;;;6.68;100.00;100681.44;6133665;28;20616;-69
2023/12/30 07:22:03;;;;;;;3.73;1.50;;;;;;;6.66;100.00;100686.94;6131779;28;20617;-69
2023/12/30 07:25:26;;;;;;;6.77;1.87;;;;;;;6.69;100.00;100694.75;6129502;28;20238;-69
2023/12/30 07:28:47;;;;;;;1.73;1.30;;;;;;;6.74;100.00;100692.56;6144232;28;20597;-70
2023/12/30 07:32:08;;;;;;;2.70;1.87;;;;;;;6.76;100.00;100698.66;6127204;28;20222;-69
2023/12/30 07:35:29;;;;;;;5.70;2.27;;;;;;;6.77;100.00;100689.66;6136822;28;20254;-69
2023/12/30 07:38:50;;;;;;;4.43;1.87;;;;;;;6.76;100.00;100729.97;6127587;28;20243;-69
2023/12/30 07:42:12;;;;;;;6.17;1.90;;;;;;;6.73;100.00;100714.09;6137170;28;20346;-68
2023/12/30 07:45:33;;;;;;;4.77;2.20;;;;;;;6.65;100.00;100733.44;6138415;28;20227;-69
2023/12/30 07:48:54;;;;;;;5.47;2.87;;;;;;;6.68;100.00;100714.44;6138540;28;20247;-69
2023/12/30 07:52:16;;;;;;;9.63;2.70;;;;;;;6.68;100.00;100722.47;6141713;28;20270;-70
2023/12/30 07:55:37;;;;;;;5.60;2.70;;;;;;;6.73;100.00;100724.81;6152020;28;20621;-69
2023/12/30 07:58:59;;;;;;;5.17;1.50;;;;;;;6.77;100.00;100720.94;6140673;28;21592;-70
2023/12/30 08:02:19;;;;;;;4.07;1.50;;;;;;;6.84;100.00;100732.91;6129833;28;20231;-69
2023/12/30 08:05:41;;;;;;;3.33;1.83;;;;;;;6.87;100.00;100735.34;6149712;28;20677;-70
2023/12/30 08:09:02;;;;;;;3.50;1.63;;;;;;;6.87;100.00;100732.66;6137488;28;20265;-66
2023/12/30 08:12:23;;;;;;;3.37;2.17;;;;;;;6.89;100.00;100728.91;6141918;28;20289;-67
2023/12/30 08:15:45;;;;;;;1.93;1.30;;;;;;;6.88;100.00;100724.53;6130750;28;20223;-66
2023/12/30 08:19:07;;;;;;;4.77;1.70;;;;;;;6.91;100.00;100732.31;6142569;28;20238;-67
2023/12/30 08:22:28;;;;;;;2.43;1.70;;;;;;;6.89;100.00;100736.94;6140242;28;20239;-66
2023/12/30 08:25:49;;;;;;;3.80;2.20;;;;;;;6.92;100.00;100727.81;6139109;28;20353;-67
2023/12/30 08:29:10;;;;;;;1.73;1.57;;;;;;;6.95;100.00;100730.25;6143228;28;20235;-67
2023/12/30 08:32:32;;;;;;;9.90;2.93;;;;;;;7.01;100.00;100727.97;6137922;28;20235;-67
2023/12/30 08:35:53;;;;;;;3.07;2.50;;;;;;;6.98;100.00;100738.94;6140691;28;20239;-67
2023/12/30 08:39:14;;;;;;;7.87;2.27;;;;;;;6.94;100.00;100736.59;6141536;28;20231;-66
2023/12/30 08:42:35;;;;;;;9.07;2.83;;;;;;;7.03;100.00;100738.59;6138784;28;20231;-66
2023/12/30 08:45:56;;;;;;;6.87;2.10;;;;;;;7.31;100.00;100764.09;6141878;28;20236;-67
2023/12/30 08:49:20;;;;;;;2.10;1.70;;;;;;;7.49;100.00;100751.97;6138912;28;20230;-66
2023/12/30 08:52:42;;;;;;;6.17;3.27;;;;;;;7.98;100.00;100763.22;6137427;28;20239;-67
2023/12/30 08:56:03;;;;;;;7.33;2.80;;;;;;;7.65;100.00;100761.38;6146111;28;20617;-67
2023/12/30 08:59:25;;;;;;;5.47;2.80;;;;;;;7.64;100.00;100766.84;6131846;28;20259;-67
2023/12/30 09:02:48;;;;;;;2.57;1.90;;;;;;;7.95;100.00;100769.66;6122105;28;20251;-67
2023/12/30 09:06:10;;;;;;;5.83;2.83;;;;;;;7.66;100.00;100789.03;6135606;28;20231;-66
2023/12/30 09:09:31;;;;;;;3.97;1.50;;;;;;;7.46;100.00;100781.69;6136896;28;20235;-66
2023/12/30 09:12:52;;;;;;;4.00;2.17;;;;;;;7.74;100.00;100779.41;6133101;28;20239;-67
2023/12/30 09:16:13;;;;;;;3.17;1.80;;;;;;;7.93;100.00;100777.00;6124839;28;20234;-67
2023/12/30 09:19:34;;;;;;;5.80;2.47;;;;;;;7.67;100.00;100812.22;6132686;28;20350;-67
2023/12/30 09:22:56;;;;;;;6.80;1.73;;;;;;;7.60;100.00;100816.34;6136950;28;20545;-67
2023/12/30 09:26:17;;;;;;;8.87;2.90;;;;;;;7.48;100.00;100817.31;6127400;28;20538;-67
2023/12/30 09:29:38;;;;;;;2.03;1.70;;;;;;;7.28;100.00;100812.63;6140860;28;20227;-67
2023/12/30 09:32:59;;;;;;;5.00;2.13;;;;;;;7.19;100.00;100817.72;6131259;28;20266;-66
2023/12/30 09:36:20;;;;;;;5.30;2.50;;;;;;;7.46;100.00;100841.56;6131901;28;21994;-68
2023/12/30 09:39:43;;;;;;;3.77;3.00;;;;;;;7.40;100.00;100842.03;6140068;28;20457;-67
2023/12/30 09:43:05;;;;;;;18.93;3.50;;;;;;;7.21;100.00;100869.38;6134824;28;20725;-66
2023/12/30 09:46:28;;;;;;;4.83;1.93;;;;;;;7.20;100.00;100864.97;6139627;28;20235;-66
2023/12/30 09:49:49;;;;;;;4.80;1.90;;;;;;;7.15;100.00;100874.34;6134100;28;20242;-66
2023/12/30 09:53:10;;;;;;;3.53;2.27;;;;;;;7.13;100.00;100871.75;6144005;28;20317;-67
2023/12/30 09:56:33;;;;;;;3.83;1.87;;;;;;;7.10;100.00;100876.50;6135550;28;20616;-67
2023/12/30 09:59:55;;;;;;;2.13;1.93;;;;;;;7.19;100.00;100875.81;6137300;28;20239;-66
2023/12/30 10:03:18;;;;;;;3.67;1.87;;;;;;;7.13;100.00;100882.47;6122963;28;20231;-66
2023/12/30 10:06:40;;;;;;;5.97;3.93;;;;;;;7.08;100.00;100876.63;6136994;28;20647;-66
2023/12/30 10:10:02;;;;;;;5.63;2.00;;;;;;;7.04;100.00;100885.88;6141663;28;20255;-67
2023/12/30 10:13:26;;;;;;;2.97;2.07;;;;;;;7.14;100.00;100896.75;6129081;28;20242;-66
2023/12/30 10:16:46;;;;;;;2.40;2.20;;;;;;;7.00;100.00;100896.91;6134464;28;20617;-67
2023/12/30 10:20:08;;;;;;;4.00;2.90;;;;;;;6.97;100.00;100910.53;6134853;28;21035;-67
2023/12/30 10:23:32;;;;;;;4.40;2.87;;;;;;;7.21;100.00;100914.97;6137614;28;20677;-67
2023/12/30 10:26:53;;;;;;;2.83;1.77;;;;;;;7.23;100.00;100904.13;6128972;28;20298;-67
2023/12/30 10:30:19;;;;;;;4.80;2.73;;;;;;;7.30;100.00;100904.50;6138588;28;20245;-66
2023/12/30 10:33:41;;;;;;;3.37;2.03;;;;;;;7.30;100.00;100905.38;6136591;28;20227;-67
2023/12/30 10:37:04;;;;;;;7.77;1.90;;;;;;;7.23;100.00;100917.53;6138210;28;20254;-67
2023/12/30 10:40:25;;;;;;;3.47;2.00;;;;;;;7.20;100.00;100912.38;6137166;28;20230;-66
2023/12/30 10:43:46;;;;;;;2.87;1.80;;;;;;;7.17;100.00;100910.81;6132216;28;20227;-67
2023/12/30 10:47:14;;;;;;;6.40;2.00;;;;;;;7.22;100.00;100907.75;6129711;28;20235;-67
2023/12/30 10:50:37;;;;;;;2.43;1.40;;;;;;;7.19;100.00;100906.19;6134347;28;20231;-67
2023/12/30 10:54:04;;;;;;;4.23;3.10;;;;;;;7.01;100.00;100902.16;6138561;28;20223;-67
2023/12/30 10:57:31;;;;;;;6.53;3.37;;;;;;;7.16;100.00;100913.56;6130125;28;20230;-66
2023/12/30 11:00:54;;;;;;;6.53;2.40;;;;;;;7.11;100.00;100911.22;6137356;28;20231;-66
2023/12/30 11:04:17;;;;;;;3.60;1.90;;;;;;;7.23;100.00;100921.06;6139003;28;20262;-67
2023/12/30 11:07:38;;;;;;;5.37;2.47;;;;;;;7.31;100.00;100931.19;6135558;28;20668;-67
2023/12/30 11:11:00;;;;;;;1.87;1.60;;;;;;;7.34;100.00;100922.09;6133145;28;20230;-67
2023/12/30 11:14:22;;;;;;;1.30;1.20;;;;;;;7.02;100.00;100937.84;6135776;28;20631;-67
2023/12/30 11:17:43;;;;;;;5.23;2.37;;;;;;;6.98;100.00;100942.59;6135472;28;20231;-67
2023/12/30 11:21:05;;;;;;;3.87;1.83;;;;;;;6.95;100.00;100948.16;6130566;28;20271;-67
2023/12/30 11:24:27;;;;;;;3.33;1.97;;;;;;;6.94;100.00;100951.81;6136231;28;20589;-67
2023/12/30 11:27:49;;;;;;;3.50;1.13;;;;;;;6.80;100.00;100943.91;6125983;28;20219;-67
2023/12/30 11:31:10;;;;;;;3.17;1.23;;;;;;;6.81;100.00;100944.78;6128673;28;20613;-66
2023/12/30 11:34:31;;;;;;;4.20;1.27;;;;;;;6.69;100.00;100948.34;6131839;28;20238;-67
2023/12/30 11:37:58;;;;;;;2.13;1.73;;;;;;;6.73;100.00;100947.16;6126244;28;20239;-66
2023/12/30 11:41:20;;;;;;;4.83;2.13;;;;;;;6.63;100.00;100946.09;6126025;28;20238;-67
2023/12/30 11:44:41;;;;;;;2.33;1.13;;;;;;;6.33;100.00;100939.28;6135210;28;20243;-66
2023/12/30 11:48:02;;;;;;;1.57;1.30;;;;;;;6.34;100.00;100940.13;6138852;28;20320;-67
2023/12/30 11:51:24;;;;;;;1.77;1.40;;;;;;;6.37;100.00;100931.88;6130038;28;20239;-67
2023/12/30 11:54:50;;;;;;;2.73;1.47;;;;;;;6.56;100.00;100942.13;6136226;28;20238;-66
2023/12/30 11:58:11;;;;;;;10.23;2.40;;;;;;;6.81;100.00;100936.72;6139147;28;20227;-67
2023/12/30 12:01:32;;;;;;;1.77;1.53;;;;;;;6.81;100.00;100945.63;6135386;28;20651;-68
2023/12/30 12:04:53;;;;;;;3.03;1.63;;;;;;;7.33;100.00;100942.66;6138127;28;20235;-67
2023/12/30 12:08:14;;;;;;;2.47;1.87;;;;;;;7.42;100.00;100942.00;6138819;28;20318;-67
2023/12/30 12:11:36;;;;;;;3.67;2.33;;;;;;;7.30;100.00;100934.88;6138416;28;20334;-68
2023/12/30 12:14:59;;;;;;;2.23;1.67;;;;;;;7.35;100.00;100942.56;6127670;28;20719;-68
2023/12/30 12:18:20;;;;;;;3.47;1.40;;;;;;;7.09;100.00;100929.25;6144022;28;20334;-68
2023/12/30 12:21:41;;;;;;;3.00;1.63;;;;;;;7.07;100.00;100943.75;6124561;28;20227;-68
2023/12/30 12:25:02;;;;;;;5.17;2.90;;;;;;;8.10;100.00;100942.09;6134054;28;20529;-71
2023/12/30 12:28:25;;;;;;;3.87;1.70;;;;;;;7.92;100.00;100932.78;6127791;28;20239;-73
2023/12/30 12:31:46;;;;;;;5.10;1.60;;;;;;;8.27;100.00;100947.06;6146865;28;20227;-69
2023/12/30 12:35:08;;;;;;;4.70;1.63;;;;;;;8.65;100.00;100935.97;6138230;28;20519;-71
2023/12/30 12:38:29;;;;;;;3.70;1.93;;;;;;;8.29;100.00;100944.25;6137013;28;20613;-73
2023/12/30 12:41:50;;;;;;;3.47;2.67;;;;;;;8.24;100.00;100939.19;6129329;28;20235;-71
2023/12/30 12:45:12;;;;;;;2.57;1.47;;;;;;;8.17;100.00;100946.03;6138040;28;20231;-70
2023/12/30 12:48:33;;;;;;;8.77;2.00;;;;;;;8.22;100.00;100945.69;6139369;28;20656;-72
2023/12/30 12:51:54;;;;;;;3.37;2.33;;;;;;;8.66;100.00;100929.59;6137840;28;20231;-72
2023/12/30 12:55:16;;;;;;;3.13;1.80;;;;;;;8.30;100.00;100940.59;6136214;28;20496;-72
2023/12/30 12:58:37;;;;;;;3.93;1.97;;;;;;;8.33;100.00;100951.06;6136097;28;20235;-74
2023/12/30 13:01:59;;;;;;;3.57;2.70;;;;;;;8.47;100.00;100945.50;6139847;28;20227;-74
2023/12/30 13:05:21;;;;;;;4.07;1.90;;;;;;;8.34;100.00;100948.28;6138966;28;20640;-75
2023/12/30 13:08:42;;;;;;;7.20;2.40;;;;;;;8.28;100.00;100943.38;6135618;28;20499;-73
2023/12/30 13:12:04;;;;;;;5.43;3.00;;;;;;;7.92;100.00;100947.06;6139761;28;20229;-73
2023/12/30 13:15:25;;;;;;;4.70;2.17;;;;;;;7.92;100.00;100946.22;6136573;28;21854;-71
2023/12/30 13:18:47;;;;;;;3.03;1.80;;;;;;;8.13;100.00;100941.00;6134041;28;20680;-72
2023/12/30 13:22:08;;;;;;;6.30;2.10;;;;;;;7.97;100.00;100944.88;6143984;28;20739;-75
2023/12/30 13:25:29;;;;;;;3.43;1.73;;;;;;;7.82;100.00;100951.41;6136523;28;20226;-69
2023/12/30 13:28:50;;;;;;;5.03;2.47;;;;;;;7.81;100.00;100938.97;6124565;28;20235;-67
2023/12/30 13:32:12;;;;;;;1.97;1.83;;;;;;;7.77;100.00;100952.75;6139362;28;20231;-67
2023/12/30 13:35:37;;;;;;;10.80;3.93;;;;;;;7.76;100.00;100951.88;6137050;28;20239;-67
2023/12/30 13:39:05;;;;;;;4.83;2.70;;;;;;;7.85;100.00;100934.22;6135858;28;20238;-68
2023/12/30 13:42:26;;;;;;;3.30;2.63;;;;;;;7.73;100.00;100948.59;6137612;28;20243;-68
2023/12/30 13:45:48;;;;;;;6.87;2.53;;;;;;;7.83;100.00;100953.13;6130559;28;20564;-69
2023/12/30 13:49:47;;;;;;;8.37;2.20;;;;;;;7.93;100.00;100964.00;6138591;28;20235;-68
2023/12/30 13:53:10;;;;;;;3.10;2.33;;;;;;;7.90;100.00;100970.50;6133087;28;20243;-68
2023/12/30 13:56:35;;;;;;;9.93;2.37;;;;;;;7.93;100.00;100962.19;6135205;28;20239;-67
2023/12/30 13:59:57;;;;;;;2.47;1.53;;;;;;;7.83;100.00;100963.88;6140322;28;20243;-68
2023/12/30 14:03:18;;;;;;;4.27;2.13;;;;;;;7.87;100.00;100976.09;6136057;28;20333;-68
2023/12/30 14:06:39;;;;;;;2.67;2.10;;;;;;;7.85;100.00;100977.16;6141427;28;20246;-68
2023/12/30 14:10:06;;;;;;;3.10;1.77;;;;;;;7.82;100.00;100972.03;6129190;28;20235;-68
2023/12/30 14:13:27;;;;;;;8.83;2.80;;;;;;;7.82;100.00;100982.78;6133246;28;20769;-69
2023/12/30 14:16:47;;;;;;;5.57;2.13;;;;;;;7.74;100.00;100980.66;6137501;28;20738;-68
2023/12/30 14:20:10;;;;;;;3.40;2.37;;;;;;;7.77;100.00;100982.25;6133563;28;20243;-68
2023/12/30 14:23:31;;;;;;;4.73;1.53;;;;;;;7.72;100.00;100984.41;6137527;28;20744;-68
2023/12/30 14:26:55;;;;;;;5.33;2.30;;;;;;;7.67;100.00;100984.78;6138199;28;20239;-68
2023/12/30 14:30:16;;;;;;;6.47;3.03;;;;;;;7.69;100.00;100990.91;6143782;28;20243;-68
2023/12/30 14:33:37;;;;;;;3.80;1.90;;;;;;;7.60;100.00;100994.25;6137971;28;20235;-69
2023/12/30 14:36:58;;;;;;;4.70;2.97;;;;;;;7.61;100.00;100981.72;6142564;28;20309;-68
2023/12/30 14:40:19;;;;;;;6.03;2.47;;;;;;;7.55;100.00;100995.59;6150218;28;20254;-69
2023/12/30 14:43:41;;;;;;;3.87;3.17;;;;;;;7.57;100.00;100991.78;6170566;28;20227;-68
2023/12/30 14:47:02;;;;;;;3.40;1.80;;;;;;;7.55;100.00;100998.25;6153283;28;20663;-68
2023/12/30 14:50:23;;;;;;;4.17;2.47;;;;;;;7.56;100.00;101003.50;6139301;28;20239;-69
2023/12/30 14:53:44;;;;;;;5.03;1.87;;;;;;;7.54;100.00;101005.44;6135691;28;20235;-68
2023/12/30 14:57:06;;;;;;;5.03;2.57;;;;;;;7.58;100.00;100993.53;6134280;28;20614;-68
2023/12/30 15:00:29;;;;;;;5.07;2.33;;;;;;;7.54;100.00;100999.22;6130772;28;20228;-69
2023/12/30 15:03:51;;;;;;;11.03;4.63;;;;;;;7.49;100.00;101004.91;6136670;28;20235;-68
2023/12/30 15:07:12;;;;;;;2.50;2.30;;;;;;;7.48;100.00;101005.03;6135662;28;20250;-69
2023/12/30 15:10:33;;;;;;;4.43;3.30;;;;;;;7.43;100.00;100997.31;6130498;28;20235;-69
2023/12/30 15:13:54;;;;;;;8.10;2.73;;;;;;;7.39;100.00;101003.03;6124875;28;20223;-69
2023/12/30 15:17:16;;;;;;;13.27;4.53;;;;;;;7.39;100.00;100995.84;6132791;28;20243;-68
2023/12/30 15:20:37;;;;;;;10.73;5.57;;;;;;;7.37;100.00;100984.38;6134634;28;20625;-69
2023/12/30 15:23:59;;;;;;;5.97;3.83;;;;;;;7.32;100.00;100993.75;6133701;28;20230;-69
2023/12/30 15:27:20;;;;;;;6.77;4.47;;;;;;;7.30;100.00;100993.00;6135586;28;20243;-68
2023/12/30 15:30:41;;;;;;;5.60;3.40;;;;;;;7.30;100.00;100988.50;6135884;28;20657;-69
2023/12/30 15:34:04;;;;;;;5.70;3.73;;;;;;;7.25;100.00;100996.88;6131139;28;20258;-69
2023/12/30 15:37:25;;;;;;;4.20;3.20;;;;;;;7.22;100.00;101002.44;6136238;28;20227;-68